Time;durP1;ratioP1;P1;durP2;ratioP2;P2;SDS_P1;SDS_P2;PMS_P1;PMS_P2;Temp;Humidity;BMP_temperature;BMP_pressure;BME280_temperature;BME280_humidity;BME280_pressure;Samples;Min_cycle;Max_cycle;Signal;HPM_P1;HPM_P2
2022/07/31 00:02:18;;;;;;;13.05;11.73;;;;;;;23.29;85.03;94493.41;5081041;28;20209;-89
2022/07/31 00:04:45;;;;;;;12.40;11.20;;;;;;;23.27;84.84;94498.03;5093327;28;20553;-87
2022/07/31 00:07:12;;;;;;;16.30;11.63;;;;;;;22.23;84.91;94339.03;5093347;28;20214;-88
2022/07/31 00:09:39;;;;;;;12.13;10.93;;;;;;;22.25;84.89;94337.00;5093667;28;20212;-87
2022/07/31 00:12:06;;;;;;;13.07;11.00;;;;;;;22.50;85.43;94373.41;5093006;28;20196;-89
2022/07/31 00:14:33;;;;;;;11.77;10.55;;;;;;;22.05;85.21;94320.78;5093225;28;20198;-86
2022/07/31 00:17:02;;;;;;;11.82;10.70;;;;;;;23.17;85.22;94492.53;5094353;28;20193;-88
2022/07/31 00:19:29;;;;;;;12.05;10.85;;;;;;;23.15;84.80;94491.97;5097200;28;20278;-86
2022/07/31 00:21:57;;;;;;;13.85;10.00;;;;;;;22.45;84.97;94414.97;5093501;28;20190;-88
2022/07/31 00:24:24;;;;;;;11.20;10.10;;;;;;;22.69;84.45;94460.19;5093871;28;20248;-88
2022/07/31 00:26:51;;;;;;;11.00;10.00;;;;;;;23.06;84.59;94514.97;5093161;28;20201;-87
2022/07/31 00:29:18;;;;;;;13.30;10.25;;;;;;;22.02;84.46;94355.06;5095288;28;20196;-87
2022/07/31 00:31:44;;;;;;;9.73;8.85;;;;;;;22.68;83.94;94458.59;5097545;28;20196;-86
2022/07/31 00:34:13;;;;;;;9.60;8.70;;;;;;;22.81;83.99;94486.34;5095252;28;20189;-88
2022/07/31 00:36:40;;;;;;;13.88;9.23;;;;;;;22.97;83.99;94517.06;5092832;28;20209;-90
2022/07/31 00:39:09;;;;;;;10.70;9.75;;;;;;;21.85;83.82;94348.81;5093068;28;20225;-86
2022/07/31 00:41:41;;;;;;;10.88;9.50;;;;;;;22.92;83.60;94521.34;5092714;28;20251;-85
2022/07/31 00:44:08;;;;;;;9.43;8.43;;;;;;;22.46;84.26;94457.44;5092589;28;20208;-90
2022/07/31 00:46:35;;;;;;;11.00;8.77;;;;;;;22.88;84.69;94530.56;5092650;28;20201;-87
2022/07/31 00:49:02;;;;;;;9.90;8.93;;;;;;;22.87;84.43;94521.97;5093008;28;20201;-86
2022/07/31 00:51:30;;;;;;;9.73;8.73;;;;;;;22.32;84.39;94435.13;5095447;28;20192;-88
2022/07/31 00:54:14;;;;;;;10.40;9.35;;;;;;;21.91;84.86;94389.63;5094926;28;20194;-88
2022/07/31 00:56:41;;;;;;;9.98;8.98;;;;;;;22.12;84.47;94411.88;5093526;28;20260;-89
2022/07/31 00:59:08;;;;;;;12.07;8.82;;;;;;;22.79;83.62;94523.03;5094040;28;20317;-89
2022/07/31 01:01:35;;;;;;;9.75;8.75;;;;;;;22.78;83.43;94523.28;5093728;28;20693;-86
2022/07/31 01:04:02;;;;;;;10.32;9.25;;;;;;;22.11;84.11;94412.91;5094238;28;20280;-86
2022/07/31 01:06:30;;;;;;;10.52;8.48;;;;;;;22.77;83.99;94521.69;5093857;28;20633;-89
2022/07/31 01:08:57;;;;;;;9.32;8.50;;;;;;;22.38;83.61;94473.38;5092393;28;20229;-87
2022/07/31 01:11:37;;;;;;;11.20;8.50;;;;;;;21.80;83.91;94396.34;5093490;28;20197;-87
2022/07/31 01:14:07;;;;;;;11.20;9.60;;;;;;;21.58;83.64;94362.09;5092260;28;20212;-89
2022/07/31 01:16:40;;;;;;;11.90;9.82;;;;;;;22.24;83.13;94463.06;5093063;28;20273;-88
2022/07/31 01:19:23;;;;;;;11.30;9.02;;;;;;;22.63;82.99;94523.63;5092164;28;20216;-89
2022/07/31 01:21:59;;;;;;;10.43;9.30;;;;;;;22.59;83.14;94517.25;5092859;28;20665;-86
2022/07/31 01:24:47;;;;;;;9.60;8.13;;;;;;;22.56;83.58;94527.31;5092231;28;20182;-86
2022/07/31 01:27:28;;;;;;;9.70;8.80;;;;;;;22.34;83.51;94495.66;5099944;28;20193;-84
2022/07/31 01:30:01;;;;;;;14.07;8.75;;;;;;;22.51;84.22;94533.19;5110749;28;20190;-83
2022/07/31 01:32:32;;;;;;;10.38;7.95;;;;;;;22.48;84.15;94529.19;5112164;28;20224;-86
2022/07/31 01:35:04;;;;;;;9.20;8.30;;;;;;;22.44;84.34;94525.41;5112408;28;20186;-84
2022/07/31 01:37:36;;;;;;;9.93;8.57;;;;;;;22.43;84.27;94533.44;5112532;28;20201;-86
2022/07/31 01:40:09;;;;;;;11.50;8.75;;;;;;;22.42;83.96;94534.47;5095639;28;20278;-88
2022/07/31 01:42:39;;;;;;;9.27;8.43;;;;;;;22.39;83.91;94527.88;5094002;28;20276;-86
2022/07/31 01:45:13;;;;;;;9.82;8.70;;;;;;;22.12;83.44;94480.41;5094392;28;20193;-84
2022/07/31 01:47:42;;;;;;;9.30;8.40;;;;;;;22.13;84.02;94481.22;5094519;28;20675;-88
2022/07/31 01:50:10;;;;;;;9.07;8.30;;;;;;;22.19;83.79;94493.38;5094136;28;20185;-89
2022/07/31 01:52:41;;;;;;;9.57;8.35;;;;;;;22.31;84.02;94516.91;5092368;28;20181;-87
2022/07/31 01:55:11;;;;;;;10.70;8.60;;;;;;;22.29;84.32;94517.16;5091849;28;20190;-89
2022/07/31 01:57:41;;;;;;;8.85;7.95;;;;;;;21.85;83.62;94448.59;5091749;28;20740;-87
2022/07/31 02:00:11;;;;;;;8.75;7.93;;;;;;;22.14;83.49;94507.03;5091709;28;20221;-88
2022/07/31 02:02:40;;;;;;;8.40;7.68;;;;;;;22.09;84.58;94500.84;5091233;28;20647;-88
2022/07/31 02:05:10;;;;;;;10.00;9.00;;;;;;;21.39;84.61;94394.28;5091585;28;20198;-88
2022/07/31 02:07:39;;;;;;;10.65;8.30;;;;;;;21.15;84.96;94359.41;5102393;28;20228;-88
2022/07/31 02:10:08;;;;;;;10.68;9.32;;;;;;;21.99;85.51;94496.13;5114031;28;20189;-86
2022/07/31 02:12:37;;;;;;;9.45;8.55;;;;;;;22.03;85.29;94507.72;5114113;28;20246;-87
2022/07/31 02:15:07;;;;;;;11.85;8.35;;;;;;;22.16;85.46;94525.88;5115109;28;20181;-87
2022/07/31 02:17:37;;;;;;;11.13;8.32;;;;;;;22.15;84.81;94521.69;5114798;28;20229;-88
2022/07/31 02:20:08;;;;;;;12.80;8.32;;;;;;;22.12;84.61;94526.47;5114168;28;20244;-86
2022/07/31 02:22:35;;;;;;;8.60;7.70;;;;;;;22.12;84.68;94521.28;5113082;28;20203;-88
2022/07/31 02:25:02;;;;;;;9.85;7.57;;;;;;;21.40;84.11;94414.88;5094769;28;20584;-88
2022/07/31 02:27:31;;;;;;;9.55;6.18;;;;;;;22.11;82.55;94525.69;5094809;28;20198;-86
2022/07/31 02:30:01;;;;;;;7.60;6.63;;;;;;;22.08;82.07;94523.50;5102375;28;20246;-88
2022/07/31 02:32:30;;;;;;;6.97;6.28;;;;;;;22.05;82.35;94526.53;5094711;28;20247;-88
2022/07/31 02:35:00;;;;;;;7.78;6.35;;;;;;;21.89;82.48;94506.22;5093904;28;20204;-88
2022/07/31 02:37:29;;;;;;;12.63;7.78;;;;;;;21.11;82.52;94392.03;5092445;28;20644;-87
2022/07/31 02:39:59;;;;;;;10.07;7.65;;;;;;;21.85;83.11;94513.66;5074698;28;20247;-87
2022/07/31 02:42:28;;;;;;;9.48;7.78;;;;;;;21.98;83.75;94529.19;5096521;28;20193;-87
2022/07/31 02:44:56;;;;;;;15.73;8.65;;;;;;;21.32;83.89;94424.75;5096258;28;20212;-87
2022/07/31 02:47:24;;;;;;;11.90;8.75;;;;;;;21.39;84.35;94446.31;5095400;28;20814;-87
2022/07/31 02:49:53;;;;;;;11.98;9.55;;;;;;;20.72;84.15;94340.06;5096278;28;20227;-88
2022/07/31 02:52:22;;;;;;;11.10;10.18;;;;;;;21.19;84.72;94417.78;5098534;28;20202;-87
2022/07/31 02:54:50;;;;;;;11.15;9.98;;;;;;;21.93;85.14;94541.22;5097483;28;20196;-88
2022/07/31 02:57:17;;;;;;;14.65;12.45;;;;;;;21.02;85.26;94400.09;5096787;28;20657;-85
2022/07/31 02:59:44;;;;;;;15.45;11.55;;;;;;;21.91;85.42;94532.84;5097884;28;20221;-86
2022/07/31 03:02:11;;;;;;;13.82;12.43;;;;;;;21.89;85.57;94530.47;5096771;28;20186;-88
2022/07/31 03:04:38;;;;;;;13.77;12.38;;;;;;;21.20;85.45;94430.59;5098161;28;20189;-87
2022/07/31 03:07:05;;;;;;;14.82;12.95;;;;;;;21.46;85.47;94463.50;5097315;28;20232;-86
2022/07/31 03:09:33;;;;;;;14.30;12.82;;;;;;;21.63;85.89;94496.78;5100158;28;20189;-85
2022/07/31 03:12:00;;;;;;;14.68;13.10;;;;;;;21.85;86.22;94536.28;5098804;28;20200;-90
2022/07/31 03:14:29;;;;;;;15.70;12.23;;;;;;;20.92;86.26;94402.34;5095705;28;20572;-88
2022/07/31 03:16:58;;;;;;;19.00;12.85;;;;;;;21.82;86.80;94540.13;5095456;28;20182;-87
2022/07/31 03:19:26;;;;;;;13.43;12.13;;;;;;;21.82;87.26;94552.34;5094969;28;20225;-89
2022/07/31 03:21:53;;;;;;;18.65;13.07;;;;;;;21.81;87.40;94540.34;5094019;28;20292;-88
2022/07/31 03:24:20;;;;;;;14.55;13.13;;;;;;;21.78;87.36;94539.75;5094437;28;20202;-87
2022/07/31 03:26:49;;;;;;;15.13;12.30;;;;;;;21.41;87.31;94486.72;5094601;28;20266;-87
2022/07/31 03:29:16;;;;;;;13.75;12.35;;;;;;;21.04;87.19;94431.88;5093667;28;20193;-89
2022/07/31 03:31:42;;;;;;;15.50;13.07;;;;;;;21.79;87.16;94545.75;5095192;28;20178;-87
2022/07/31 03:34:10;;;;;;;14.10;12.55;;;;;;;21.78;87.20;94550.16;5094566;28;20649;-89
2022/07/31 03:36:38;;;;;;;14.00;12.60;;;;;;;21.56;86.31;94515.06;5093791;28;20307;-85
2022/07/31 03:39:05;;;;;;;13.82;12.02;;;;;;;21.40;85.84;94492.94;5093980;28;20197;-88
2022/07/31 03:41:32;;;;;;;13.40;11.40;;;;;;;21.73;85.87;94547.38;5095438;28;20226;-88
2022/07/31 03:44:01;;;;;;;13.65;12.35;;;;;;;21.73;86.25;94557.78;5095920;28;20684;-88
2022/07/31 03:46:29;;;;;;;12.15;11.02;;;;;;;21.52;86.42;94532.09;5094205;28;20645;-86
2022/07/31 03:48:56;;;;;;;13.13;11.98;;;;;;;20.78;86.61;94413.81;5094245;28;20201;-87
2022/07/31 03:51:23;;;;;;;11.43;10.25;;;;;;;21.60;86.61;94542.25;5093647;28;20189;-87
2022/07/31 03:53:51;;;;;;;9.68;8.63;;;;;;;21.09;85.74;94464.28;5093015;28;20205;-89
2022/07/31 03:56:19;;;;;;;12.68;8.75;;;;;;;21.27;85.65;94498.19;5093815;28;20661;-88
2022/07/31 03:58:47;;;;;;;9.52;8.63;;;;;;;21.70;85.20;94565.22;5096681;28;20197;-86
2022/07/31 04:01:16;;;;;;;9.30;8.45;;;;;;;21.72;85.45;94571.03;5100833;28;20221;-88
2022/07/31 04:03:43;;;;;;;9.13;8.32;;;;;;;21.33;85.52;94509.56;5096990;28;20208;-89
2022/07/31 04:06:10;;;;;;;8.82;7.78;;;;;;;20.42;85.38;94360.59;5094691;28;20190;-89
2022/07/31 04:08:37;;;;;;;11.38;8.63;;;;;;;21.73;85.56;94568.22;5094172;28;20227;-88
2022/07/31 04:11:05;;;;;;;9.23;8.30;;;;;;;21.74;85.87;94566.41;5093701;28;20193;-89
2022/07/31 04:13:35;;;;;;;10.10;8.32;;;;;;;20.84;85.37;94431.19;5075483;28;20209;-88
2022/07/31 04:16:02;;;;;;;11.27;10.05;;;;;;;20.88;85.66;94442.75;5093784;28;20185;-88
2022/07/31 04:18:31;;;;;;;10.88;9.77;;;;;;;20.75;85.59;94420.22;5095983;28;20278;-89
2022/07/31 04:20:58;;;;;;;11.95;9.80;;;;;;;21.79;86.06;94574.38;5096751;28;20231;-86
2022/07/31 04:23:24;;;;;;;11.23;10.13;;;;;;;21.57;86.29;94537.47;5100932;28;20193;-87
2022/07/31 04:25:54;;;;;;;13.35;10.82;;;;;;;21.82;85.99;94560.16;5094543;28;20213;-88
2022/07/31 04:28:21;;;;;;;11.52;10.35;;;;;;;20.98;85.91;94445.72;5093547;28;20201;-86
2022/07/31 04:30:48;;;;;;;13.50;10.68;;;;;;;21.46;86.37;94517.31;5094089;28;20281;-85
2022/07/31 04:33:15;;;;;;;12.10;10.70;;;;;;;21.86;86.73;94564.72;5093877;28;20204;-85
2022/07/31 04:35:43;;;;;;;11.88;10.65;;;;;;;21.89;87.03;94559.09;5093038;28;20199;-88
2022/07/31 04:38:10;;;;;;;11.73;9.60;;;;;;;21.92;87.26;94558.66;5094323;28;20200;-89
2022/07/31 04:40:37;;;;;;;11.20;10.05;;;;;;;20.97;87.04;94404.31;5100311;28;20664;-88
2022/07/31 04:43:04;;;;;;;13.48;9.85;;;;;;;20.52;86.85;94331.59;5104841;28;20208;-89
2022/07/31 04:45:32;;;;;;;11.82;10.00;;;;;;;20.41;86.11;94298.44;5103471;28;20194;-87
2022/07/31 04:47:59;;;;;;;9.40;8.50;;;;;;;22.08;86.19;94553.97;5102907;28;20199;-89
2022/07/31 04:50:26;;;;;;;9.93;8.98;;;;;;;21.92;86.15;94534.44;5106178;28;20293;-88
2022/07/31 04:52:55;;;;;;;9.90;8.90;;;;;;;22.14;86.43;94558.34;5112902;28;20248;-84
2022/07/31 04:55:23;;;;;;;10.95;9.85;;;;;;;21.66;86.03;94480.75;5113536;28;20193;-86
2022/07/31 04:57:50;;;;;;;10.48;9.20;;;;;;;21.53;86.38;94456.41;5113589;28;20359;-86
2022/07/31 05:00:17;;;;;;;11.20;8.65;;;;;;;21.41;86.11;94439.88;5098981;28;20227;-88
2022/07/31 05:02:44;;;;;;;10.90;8.82;;;;;;;;;;5092745;28;20201;-87
2022/07/31 05:05:10;;;;;;;10.25;9.30;;;;;;;22.34;85.55;94579.81;5092281;28;20197;-85
2022/07/31 05:07:39;;;;;;;9.05;7.55;;;;;;;22.38;85.14;94588.81;5092367;28;20221;-85
2022/07/31 05:10:09;;;;;;;11.50;8.48;;;;;;;21.40;85.10;94427.88;5098297;28;20182;-88
2022/07/31 05:12:36;;;;;;;9.00;8.20;;;;;;;21.60;84.06;94452.97;5091838;28;20251;-88
2022/07/31 05:15:03;;;;;;;9.48;8.57;;;;;;;22.47;84.11;94573.72;5092824;28;20205;-89
2022/07/31 05:17:32;;;;;;;9.35;8.52;;;;;;;22.52;84.29;94579.88;5092975;28;20192;-88
2022/07/31 05:19:59;;;;;;;8.57;7.78;;;;;;;22.54;84.59;94574.47;5093485;28;20278;-88
2022/07/31 05:22:25;;;;;;;9.55;8.13;;;;;;;22.59;84.33;94571.19;5092941;28;20191;-89
2022/07/31 05:24:52;;;;;;;7.80;7.10;;;;;;;21.56;83.86;94410.16;5092807;28;20201;-86
2022/07/31 05:27:21;;;;;;;8.35;7.60;;;;;;;22.66;83.95;94574.53;5093601;28;20200;-89
2022/07/31 05:29:48;;;;;;;8.73;7.95;;;;;;;22.69;83.65;94580.13;5094821;28;20189;-89
2022/07/31 05:32:15;;;;;;;8.90;7.30;;;;;;;22.44;83.64;94529.81;5092805;28;20185;-89
2022/07/31 05:34:42;;;;;;;7.55;6.93;;;;;;;22.75;82.90;94575.84;5095308;28;20193;-89
2022/07/31 05:37:09;;;;;;;8.23;7.43;;;;;;;22.27;82.37;94498.31;5093069;28;20223;-88
2022/07/31 05:39:35;;;;;;;8.35;7.47;;;;;;;22.60;81.87;94550.13;5092566;28;20196;-87
2022/07/31 05:42:02;;;;;;;8.30;7.03;;;;;;;22.81;82.23;94577.59;5093184;28;20232;-87
2022/07/31 05:44:31;;;;;;;9.05;8.15;;;;;;;22.32;82.00;94492.44;5093238;28;20259;-89
2022/07/31 05:46:58;;;;;;;8.32;7.53;;;;;;;22.54;80.82;94519.72;5091600;28;20602;-89
2022/07/31 05:49:27;;;;;;;8.40;7.60;;;;;;;22.97;80.63;94571.84;5092162;28;20193;-89
2022/07/31 05:51:54;;;;;;;8.40;7.60;;;;;;;22.52;80.10;94496.47;5091560;28;20182;-88
2022/07/31 05:54:21;;;;;;;8.05;7.25;;;;;;;22.26;79.74;94455.03;5091967;28;20213;-87
2022/07/31 05:56:48;;;;;;;9.43;8.63;;;;;;;22.94;80.69;94540.97;5091507;28;20598;-88
2022/07/31 05:59:15;;;;;;;9.30;7.90;;;;;;;23.06;80.51;94548.88;5091405;28;20273;-88
2022/07/31 06:01:44;;;;;;;9.98;8.98;;;;;;;23.27;79.54;94584.13;5091251;28;20209;-87
2022/07/31 06:04:11;;;;;;;9.82;8.93;;;;;;;22.56;78.77;94457.72;5091890;28;20197;-89
2022/07/31 06:06:37;;;;;;;10.30;9.30;;;;;;;23.02;79.10;94517.22;5091291;28;20276;-86
2022/07/31 06:09:05;;;;;;;9.52;8.73;;;;;;;22.50;80.51;94411.69;5092249;28;20209;-90
2022/07/31 06:11:32;;;;;;;9.80;8.73;;;;;;;22.93;79.72;94465.56;5091878;28;20198;-87
2022/07/31 06:13:59;;;;;;;9.82;8.88;;;;;;;23.64;79.38;94560.59;5091177;28;20209;-87
2022/07/31 06:16:26;;;;;;;13.40;9.60;;;;;;;23.64;78.38;94537.88;5091295;28;20190;-88
2022/07/31 06:18:54;;;;;;;11.13;9.63;;;;;;;23.96;78.29;94575.03;5091572;28;20203;-88
2022/07/31 06:21:22;;;;;;;10.02;9.13;;;;;;;24.09;78.38;94568.00;5091830;28;20212;-88
2022/07/31 06:23:48;;;;;;;10.77;9.77;;;;;;;24.25;79.03;94573.38;5093850;28;20185;-87
2022/07/31 06:26:15;;;;;;;11.13;10.05;;;;;;;24.39;78.89;94570.56;5097378;28;20657;-86
2022/07/31 06:28:42;;;;;;;10.75;9.75;;;;;;;24.44;76.49;94568.91;5092704;28;20190;-86
2022/07/31 06:31:16;;;;;;;11.82;10.65;;;;;;;24.52;75.99;94555.50;5092509;28;20630;-89
2022/07/31 06:33:43;;;;;;;11.13;10.02;;;;;;;24.71;75.21;94565.81;5091774;28;20566;-87
2022/07/31 06:36:11;;;;;;;12.05;10.95;;;;;;;24.83;75.03;94568.41;5092764;28;20181;-89
2022/07/31 06:38:38;;;;;;;11.48;10.38;;;;;;;24.93;73.85;94566.03;5093826;28;20209;-88
2022/07/31 06:41:07;;;;;;;11.88;10.68;;;;;;;24.87;71.53;94566.94;5095106;28;20214;-88
2022/07/31 06:43:34;;;;;;;12.50;11.25;;;;;;;24.08;72.73;94426.13;5095116;28;20219;-89
2022/07/31 06:46:03;;;;;;;11.27;10.18;;;;;;;25.09;72.73;94567.19;5097888;28;20198;-87
2022/07/31 06:48:30;;;;;;;12.85;11.30;;;;;;;25.12;72.19;94569.31;5097289;28;20193;-86
2022/07/31 06:50:56;;;;;;;15.50;11.98;;;;;;;25.14;71.55;94570.69;5097156;28;20194;-87
2022/07/31 06:53:25;;;;;;;12.48;11.18;;;;;;;25.22;71.33;94586.03;5097959;28;20194;-89
2022/07/31 06:55:52;;;;;;;11.93;10.73;;;;;;;25.23;70.89;94579.78;5104529;28;20185;-89
2022/07/31 06:58:19;;;;;;;14.68;12.60;;;;;;;25.25;70.84;94579.53;5096397;28;20193;-88
2022/07/31 07:00:46;;;;;;;13.50;11.85;;;;;;;24.34;69.77;94453.59;5095772;28;20217;-88
2022/07/31 07:03:13;;;;;;;14.43;12.50;;;;;;;25.23;69.58;94579.78;5095849;28;20194;-88
2022/07/31 07:05:40;;;;;;;13.18;11.82;;;;;;;25.19;70.24;94586.50;5101305;28;20188;-89
2022/07/31 07:08:07;;;;;;;13.57;12.25;;;;;;;25.26;69.61;94583.75;5095990;28;20226;-88
2022/07/31 07:10:35;;;;;;;14.65;11.63;;;;;;;25.08;69.66;94555.88;5095961;28;20679;-90
2022/07/31 07:13:02;;;;;;;13.32;11.98;;;;;;;25.27;70.41;94593.19;5097110;28;20550;-89
2022/07/31 07:15:29;;;;;;;15.55;12.93;;;;;;;25.29;70.94;94596.38;5098445;28;20254;-88
2022/07/31 07:17:56;;;;;;;14.57;11.93;;;;;;;25.03;70.31;94547.91;5109342;28;20258;-89
2022/07/31 07:20:23;;;;;;;14.50;11.77;;;;;;;25.35;70.04;94595.47;5112167;28;20190;-85
2022/07/31 07:22:50;;;;;;;14.07;12.50;;;;;;;25.34;70.45;94593.03;5113650;28;20249;-89
2022/07/31 07:25:19;;;;;;;13.38;11.98;;;;;;;25.40;69.97;94592.13;5113445;28;20197;-87
2022/07/31 07:27:47;;;;;;;13.05;11.75;;;;;;;25.42;69.18;94588.25;5111263;28;20194;-84
2022/07/31 07:30:14;;;;;;;13.45;12.18;;;;;;;24.93;69.37;94524.16;5116798;28;20660;-87
2022/07/31 07:32:41;;;;;;;14.15;12.65;;;;;;;25.45;69.49;94600.88;5115191;28;20196;-87
2022/07/31 07:35:11;;;;;;;13.45;12.05;;;;;;;25.47;69.88;94601.44;5110700;28;20228;-87
2022/07/31 07:37:39;;;;;;;13.60;12.30;;;;;;;24.55;70.17;94452.25;5111141;28;20177;-87
2022/07/31 07:40:08;;;;;;;13.90;12.60;;;;;;;25.44;70.20;94601.13;5108767;28;20201;-87
2022/07/31 07:42:35;;;;;;;13.52;12.23;;;;;;;25.39;69.21;94599.19;5110410;28;20708;-86
2022/07/31 07:45:04;;;;;;;15.45;12.30;;;;;;;25.22;69.88;94566.91;5100847;28;20189;-87
2022/07/31 07:47:30;;;;;;;15.05;11.90;;;;;;;25.44;69.94;94580.19;5097763;28;20626;-87
2022/07/31 07:49:57;;;;;;;13.43;11.57;;;;;;;25.13;70.59;94526.41;5097241;28;20246;-88
2022/07/31 07:52:24;;;;;;;14.00;11.35;;;;;;;24.93;71.07;94484.91;5097797;28;20665;-87
2022/07/31 07:54:51;;;;;;;16.92;8.98;;;;;;;24.47;69.79;94421.22;5097051;28;20204;-88
2022/07/31 07:57:20;;;;;;;10.23;9.23;;;;;;;25.59;68.55;94603.22;5097132;28;20189;-86
2022/07/31 07:59:48;;;;;;;9.38;7.80;;;;;;;25.22;68.87;94545.97;5096663;28;20215;-88
2022/07/31 08:02:16;;;;;;;9.88;8.88;;;;;;;25.59;69.56;94604.03;5100544;28;20221;-89
2022/07/31 08:04:43;;;;;;;8.98;8.07;;;;;;;25.62;69.35;94592.28;5098206;28;20198;-88
2022/07/31 08:07:10;;;;;;;9.52;8.43;;;;;;;25.57;69.30;94597.44;5094022;28;20256;-88
2022/07/31 08:09:37;;;;;;;10.00;9.00;;;;;;;25.33;69.21;94567.91;5095225;28;20189;-88
2022/07/31 08:12:05;;;;;;;9.57;8.57;;;;;;;25.48;68.86;94586.53;5095842;28;20357;-87
2022/07/31 08:14:32;;;;;;;9.50;8.60;;;;;;;25.60;68.60;94608.22;5094534;28;20186;-88
2022/07/31 08:16:59;;;;;;;9.65;8.70;;;;;;;25.60;68.48;94605.59;5095892;28;20178;-88
2022/07/31 08:19:27;;;;;;;10.15;9.02;;;;;;;25.58;69.09;94610.28;5093753;28;20251;-88
2022/07/31 08:21:54;;;;;;;10.30;9.30;;;;;;;25.58;69.36;94609.50;5094391;28;20586;-89
2022/07/31 08:24:21;;;;;;;9.82;8.82;;;;;;;25.63;69.06;94615.63;5094775;28;20197;-88
2022/07/31 08:29:32;;;;;;;9.52;7.68;;;;;;;25.49;68.25;94602.00;5096617;28;20288;-88
2022/07/31 08:31:59;;;;;;;12.90;8.82;;;;;;;25.38;68.41;94581.88;5093081;28;20677;-89
2022/07/31 08:34:30;;;;;;;9.43;8.50;;;;;;;25.27;69.52;94553.94;5093862;28;20194;-90
2022/07/31 08:36:57;;;;;;;9.57;8.60;;;;;;;25.46;69.62;94585.97;5095293;28;20200;-89
2022/07/31 08:39:24;;;;;;;9.80;8.80;;;;;;;25.60;69.42;94612.66;5092800;28;20193;-89
2022/07/31 08:41:51;;;;;;;9.50;8.57;;;;;;;25.42;69.64;94580.38;5094218;28;20217;-89
2022/07/31 08:44:18;;;;;;;9.68;8.55;;;;;;;25.15;69.50;94553.94;5093672;28;20181;-88
2022/07/31 08:46:46;;;;;;;10.73;8.85;;;;;;;25.60;69.10;94612.66;5094617;28;20190;-89
2022/07/31 08:49:16;;;;;;;14.38;8.85;;;;;;;25.62;69.29;94608.81;5094160;28;20729;-88
2022/07/31 08:51:45;;;;;;;12.27;9.00;;;;;;;25.53;69.22;94605.75;5093709;28;20186;-87
2022/07/31 08:54:12;;;;;;;10.95;9.10;;;;;;;25.32;69.42;94572.34;5093068;28;20660;-85
2022/07/31 08:56:39;;;;;;;11.35;9.52;;;;;;;25.64;69.00;94608.56;5095888;28;20254;-88
2022/07/31 08:59:07;;;;;;;10.48;9.45;;;;;;;25.67;69.17;94619.38;5098594;28;20190;-89
2022/07/31 09:01:35;;;;;;;14.90;10.55;;;;;;;24.43;67.79;94422.72;5093561;28;20230;-88
2022/07/31 09:04:02;;;;;;;13.18;9.55;;;;;;;25.73;68.32;94609.78;5093317;28;20732;-86
2022/07/31 09:06:29;;;;;;;11.00;9.30;;;;;;;25.69;68.49;94606.84;5093375;28;20202;-89
2022/07/31 09:08:58;;;;;;;11.75;9.68;;;;;;;24.94;68.45;94483.88;5092254;28;20228;-89
2022/07/31 09:11:25;;;;;;;10.45;9.43;;;;;;;25.79;68.46;94606.25;5092331;28;20193;-87
2022/07/31 09:13:56;;;;;;;10.88;9.77;;;;;;;25.83;67.71;94609.22;5091870;28;20239;-86
2022/07/31 09:16:23;;;;;;;10.52;9.52;;;;;;;25.38;67.12;94547.84;5092110;28;20212;-89
2022/07/31 09:18:57;;;;;;;13.30;9.52;;;;;;;25.81;67.40;94601.56;5093108;28;20186;-88
2022/07/31 09:21:24;;;;;;;12.48;11.27;;;;;;;25.55;67.63;94571.47;5094389;28;20727;-87
2022/07/31 09:23:53;;;;;;;14.07;12.55;;;;;;;25.75;67.34;94584.16;5093457;28;20220;-87
2022/07/31 09:26:33;;;;;;;12.45;11.23;;;;;;;25.97;67.67;94611.31;5091932;28;20286;-88
2022/07/31 09:29:01;;;;;;;13.90;12.50;;;;;;;25.23;67.44;94489.97;5091324;28;20258;-87
2022/07/31 09:31:32;;;;;;;15.80;13.15;;;;;;;25.98;65.85;94612.88;5091768;28;20209;-88
2022/07/31 09:33:59;;;;;;;15.18;12.93;;;;;;;25.95;65.74;94604.69;5092058;28;20217;-88
2022/07/31 09:36:27;;;;;;;14.73;13.25;;;;;;;25.90;65.79;94581.03;5091160;28;20189;-90
2022/07/31 09:38:56;;;;;;;14.95;13.50;;;;;;;26.01;64.72;94598.53;5091633;28;20221;-88
2022/07/31 09:41:24;;;;;;;14.75;13.35;;;;;;;26.06;64.28;94597.81;5090786;28;20240;-87
2022/07/31 09:43:55;;;;;;;16.52;12.85;;;;;;;25.56;63.82;94510.22;5091715;28;20185;-91
2022/07/31 09:46:22;;;;;;;13.77;12.38;;;;;;;25.99;63.79;94576.97;5091810;28;20669;-89
2022/07/31 09:48:51;;;;;;;14.75;13.35;;;;;;;26.15;62.39;94593.78;5091273;28;20197;-86
2022/07/31 09:51:18;;;;;;;14.30;12.93;;;;;;;26.11;62.06;94598.69;5094004;28;20642;-88
2022/07/31 09:53:46;;;;;;;17.27;13.35;;;;;;;25.44;62.60;94499.00;5091934;28;20193;-88
2022/07/31 09:56:14;;;;;;;14.48;13.18;;;;;;;25.90;62.80;94546.97;5093080;28;20284;-88
2022/07/31 09:58:43;;;;;;;14.07;12.60;;;;;;;26.25;63.34;94591.31;5091526;28;20178;-87
2022/07/31 10:01:13;;;;;;;12.40;11.15;;;;;;;26.23;63.69;94594.19;5094152;28;20270;-91
2022/07/31 10:03:42;;;;;;;14.07;12.73;;;;;;;25.46;62.91;94465.50;5093417;28;20232;-89
2022/07/31 10:06:16;;;;;;;13.30;12.05;;;;;;;25.68;62.27;94492.59;5094797;28;20204;-87
2022/07/31 10:08:45;;;;;;;13.63;12.35;;;;;;;26.23;62.51;94554.06;5096459;28;20221;-87
2022/07/31 10:11:19;;;;;;;14.35;12.95;;;;;;;26.30;62.61;94549.47;5097216;28;20720;-87
2022/07/31 10:13:51;;;;;;;14.02;12.65;;;;;;;26.49;62.79;94581.50;5093301;28;20250;-87
2022/07/31 10:16:21;;;;;;;14.73;13.38;;;;;;;26.49;62.20;94565.75;5090996;28;20657;-88
2022/07/31 10:18:54;;;;;;;15.20;13.77;;;;;;;26.35;61.74;94543.50;5091124;28;20190;-87
2022/07/31 10:21:29;;;;;;;15.60;14.10;;;;;;;25.31;61.03;94382.28;5090811;28;20197;-86
2022/07/31 10:24:00;;;;;;;14.90;13.18;;;;;;;26.60;60.99;94571.94;5091135;28;20193;-83
2022/07/31 10:26:27;;;;;;;14.45;13.00;;;;;;;26.08;59.66;94473.38;5094275;28;20198;-85
2022/07/31 10:28:57;;;;;;;13.93;12.52;;;;;;;26.12;59.51;94465.78;5093000;28;20194;-83
2022/07/31 10:31:24;;;;;;;14.65;13.07;;;;;;;26.41;59.31;94501.34;5091734;28;20197;-83
2022/07/31 10:33:53;;;;;;;13.02;11.65;;;;;;;26.79;59.75;94544.41;5093184;28;20232;-85
2022/07/31 10:36:23;;;;;;;13.90;12.45;;;;;;;26.14;59.49;94433.09;5094175;28;20190;-86
2022/07/31 10:38:56;;;;;;;14.63;13.13;;;;;;;26.89;59.78;94552.41;5093949;28;20189;-85
2022/07/31 10:41:32;;;;;;;12.82;11.55;;;;;;;26.71;57.67;94508.09;5095191;28;20582;-83
2022/07/31 10:44:08;;;;;;;11.65;10.55;;;;;;;26.33;57.21;94448.53;5097318;28;20239;-86
2022/07/31 10:46:54;;;;;;;11.80;10.73;;;;;;;26.61;56.94;94485.16;5096428;28;20277;-85
2022/07/31 10:49:41;;;;;;;12.45;11.35;;;;;;;26.99;56.82;94542.06;5111164;28;20221;-86
2022/07/31 10:52:17;;;;;;;11.98;10.82;;;;;;;26.80;55.97;94535.50;5110536;28;20200;-85
2022/07/31 10:54:46;;;;;;;12.88;11.77;;;;;;;26.88;57.04;94535.09;5113899;28;20250;-85
2022/07/31 10:57:22;;;;;;;13.73;12.43;;;;;;;26.95;57.68;94540.16;5115317;28;20166;-85
2022/07/31 10:59:50;;;;;;;12.55;11.38;;;;;;;26.38;57.61;94449.41;5115575;28;20231;-88
2022/07/31 11:02:28;;;;;;;12.25;11.15;;;;;;;25.73;56.72;94337.34;5116504;28;20235;-85
2022/07/31 11:05:07;;;;;;;11.50;10.50;;;;;;;26.45;55.20;94442.19;5110830;28;20185;-89
2022/07/31 11:07:34;;;;;;;11.02;9.93;;;;;;;26.40;55.97;94439.47;5099319;28;20229;-88
2022/07/31 11:10:12;;;;;;;10.73;9.73;;;;;;;27.04;56.13;94528.22;5098083;28;20269;-87
2022/07/31 11:12:39;;;;;;;10.80;9.90;;;;;;;27.07;55.42;94524.28;5097227;28;20276;-87
2022/07/31 11:15:20;;;;;;;11.65;10.48;;;;;;;27.09;55.90;94527.47;5109842;28;20250;-88
2022/07/31 11:17:50;;;;;;;11.65;10.45;;;;;;;26.77;55.33;94467.78;5115042;28;20178;-83
2022/07/31 11:20:28;;;;;;;11.60;10.50;;;;;;;27.17;55.45;94517.38;5118003;28;20209;-84
2022/07/31 11:23:00;;;;;;;11.60;10.63;;;;;;;27.23;56.47;94513.75;5118271;28;20247;-82
2022/07/31 11:25:32;;;;;;;12.63;11.50;;;;;;;27.03;56.26;94471.50;5118033;28;20197;-84
2022/07/31 11:28:11;;;;;;;12.13;11.10;;;;;;;27.18;54.86;94478.78;5115457;28;20209;-88
2022/07/31 11:30:55;;;;;;;11.82;10.68;;;;;;;27.32;54.85;94510.69;5098284;28;20225;-89
2022/07/31 11:33:33;;;;;;;12.27;11.27;;;;;;;27.21;54.56;94509.78;5097795;28;20200;-87
2022/07/31 11:36:08;;;;;;;12.57;11.38;;;;;;;27.22;54.52;94511.38;5098577;28;20181;-89